Portada
METAR-TAF:

METAR-TAF

Aeropuertos :

Aeropuerto Internacional Marco Polo

Venecia, Italia

latitud: 45-30N, longitud: 012-20E, altitud: 2 m

Observación

El informe se hizo hace 43 minutos, a las 11:50 UTC
Viento 7 kt del sureste
Temperatura 17°C
Humedad 27%
Presión 1021 hPa
Visibilidad 10 km o más
sin nubes por debajo de 1500 m y sin presencia de cumulonimbus.

METAR: LIPZ 041150Z 13007KT CAVOK 17/M02 Q1021 NOSIG

Hora: 14:33 (12:33 UTC)

Pronóstico

El informe se hizo hace 1 hora y 33 minutos, a las 11:00 UTC
Pronóstico válido del 04 a las 12 UTC al 05 a las 18 UTC
Viento 8 kt del sureste
Visibilidad 10 km o más
sin nubes por debajo de 1500 m y sin presencia de cumulonimbus.
Evolucionando progresivamente
del 04 a las 18 UTC al 04 a las 20 UTC
Viento 10 kt del noreste

TAF: LIPZ 041100Z 0412/0518 13008KT CAVOK BECMG 0418/0420 04010KT

Observaciones y pronósticos meteorológicos de más de 4000 aeropuertos (mensajes METAR y TAF).

Los puntos amarillos y rojos representan las estaciones disponibles.

Ponga el ratón en el punto deseado para ver el nombre de la estación.

Haga clic para ver las observaciones y los pronósticos meteorológicos.

Para cambiar el mapa : haga clic en los botones verdes con una cruz de color negro para hacer un zoom, en el botón verde con un guión para alejar o en las flechas verdes para mapas adyacentes.


METAR-TAF: